Tiempo atmosférico en la estación meteorológica de Fuente Palmera, Córdoba (120 m.)



Fecha
DESCASC
Temp. máxima en grados centígrados (hora)
DESCASC
Temp. mínima en grados centígrados (hora)
DESCASC
Temp. media en grados centígrados
DESCASC
Racha de viento máxima en m/sg (hora)
DESCASC
Velocidad máxima media en intervalos de 10 minutos(hora)
DESCASC
Precipitaciones diarias en mm
DESCASC
Precipitaciones de 00:00 a 06:00 en mm
DESCASC
Precipitaciones de 06:00 a 12:00 en mm
DESCASC
Precipitaciones de 12:00 a 18:00 en mm
DESCASC
Precipitaciones de 18:00 a 24:00 en mm
DESCASC
02-07-2020 37 (17:40) 19.6 (07:20) 28.3 10 (20:10) 6.11 (19:20) 0 0 0 0 0
01-07-2020 36.4 (17:40) 20.3 (06:10) 28.4 9.17 (18:00) 5.28 (18:20) 0 0 0 0 0
30-06-2020 37.4 (16:40) 19.9 (00:00) 28.7 10.28 (20:40) 6.67 (20:50) 0 0 0 0 0
29-06-2020 39.7 (17:10) 21 (00:00) 30.4 6.94 (00:40) 4.44 (00:40) 0 0 0 0 0
28-06-2020 38.6 (18:20) 18.9 (00:00) 28.7 5.56 (00:10) 3.33 (23:00) 0 0 0 0 0
27-06-2020 35.3 (18:40) 16.6 (00:00) 25.9 8.89 (22:00) 6.11 (22:00) 0 0 0 0 0
26-06-2020 32 (17:40) 19.4 (00:00) 25.7 10 (21:00) 5.83 (21:00) 0 0 0 0 0
25-06-2020 32.9 (17:20) 20.4 (00:00) 26.7 11.11 (19:40) 6.67 (18:50) 0 0 0 0 0
24-06-2020 38.5 (18:00) 20.5 (00:00) 29.5 9.72 (18:10) 5.28 (18:10) 0 0 0 0 0
23-06-2020 39.5 (15:50) 20.9 (00:00) 30.2 10 (19:10) 5.56 (18:40) 0 0 0 0 0
22-06-2020 39.6 (17:20) 19.2 (00:00) 29.4 10 (14:40) 5.56 (16:10) 0 0 0 0 0
21-06-2020 38.1 (19:30) 17.8 (00:00) 27.9 5.83 (01:30) 3.33 (01:10) 0 0 0 0 0
20-06-2020 36 (18:40) 15.6 (00:00) 25.8 6.94 (16:20) 3.61 (16:20) 0 0 0 0 0
19-06-2020 31.7 (18:20) 15.3 (00:00) 23.5 8.33 (15:10) 4.17 (16:10) 0 0 0 0 0
18-06-2020 31.7 (18:30) 14.6 (00:00) 23.2 10.28 (17:30) 5.83 (19:10) 0 0 0 0 0
17-06-2020 31.2 (18:30) 17.4 (00:00) 24.3 10 (19:00) 5 (19:00) 0 0 0 0 0
16-06-2020 30.5 (17:50) 15.7 (00:00) 23.1 12.22 (19:40) 7.22 (19:20) 0 0 0 0 0
15-06-2020 30 (18:20) 13.4 (00:00) 21.7 9.72 (14:40) 5.56 (16:50) 0 0 0 0 0
14-06-2020 29.4 (16:50) 15.4 (00:00) 22.4 11.67 (19:20) 6.94 (19:20) 0 0 0 0 0
13-06-2020 26.6 (19:10) 12.6 (00:00) 19.6 9.17 (00:30) 4.72 (00:20) 0 0 0 0 0
12-06-2020 25.3 (17:10) 16.5 (00:00) 20.9 12.78 (22:40) 6.67 (21:00) 0 0 0 0 0
11-06-2020 26.8 (16:20) 14.6 (00:00) 20.7 16.11 (18:20) 9.17 (18:50) 0.2 0 0 0 0.2
10-06-2020 30.9 (17:00) 14 (00:00) 22.4 10.28 (20:40) 5.56 (18:40) 0 0 0 0 0
09-06-2020 29.9 (18:30) 13.1 (00:00) 21.5 12.5 (20:40) 7.22 (20:10) 0 0 0 0 0
08-06-2020 27.5 (18:10) 14.6 (07:40) 21.1 11.11 (21:00) 6.67 (20:20) 0 0 0 0 0
07-06-2020 27.8 (16:50) 17.7 (00:00) 22.8 13.33 (16:40) 8.33 (13:10) 0 0 0 0 0
06-06-2020 30.3 (17:40) 16.3 (00:00) 23.3 10.83 (23:30) 6.11 (16:50) 0 0 0 0 0
05-06-2020 30.1 (17:30) 18.3 (00:00) 24.2 10.83 (19:20) 6.11 (19:20) 0 0 0 0 0
04-06-2020 27.4 (16:40) 17.9 (00:00) 22.6 14.72 (19:30) 10.28 (19:30) 0 0 0 0 0

Gráficas

Temp. máximas Temp. mínimas Temp. medias Precipitaciones Rachas de viento máximas Velocidades máximas media en intervalos de 10 minutos

Datos horarios

Fecha y hora oficial Temperatura (ºC) Velocidad del viento (km/h) Dirección del viento Racha (km/h) Dirección de racha Precipitación (mm) Presión (hPa) Tendencia (hPa) Humedad (%)
2020-07-03 23:00:00 28.5 8 Oeste 29 Oeste 0 -- -- 23
2020-07-03 22:00:00 30.5 10 Oeste 15 Oeste 0 -- -- 13
2020-07-03 21:00:00 34.6 9 Oeste 19 Oeste 0 -- -- 9
2020-07-03 20:00:00 35.9 10 Oeste 24 Oeste 0 -- -- 8
2020-07-03 19:00:00 36.2 10 Sudoeste 23 Sudoeste 0 -- -- 6
2020-07-03 18:00:00 36 12 Oeste 21 Oeste 0 -- -- 5
2020-07-03 17:00:00 35.3 8 Oeste 22 Sudoeste 0 -- -- 7
2020-07-03 16:00:00 34.4 6 Sudoeste 18 Oeste 0 -- -- 9
2020-07-03 15:00:00 33.2 8 Oeste 18 Sudoeste 0 -- -- 11
2020-07-03 14:00:00 32 4 Nordeste 17 Norte 0 -- -- 14
2020-07-03 13:00:00 30.2 9 Oeste 18 Oeste 0 -- -- 17
2020-07-03 12:00:00 28.8 6 Oeste 12 Sudoeste 0 -- -- 20
2020-07-03 11:00:00 26.8 5 Sur 11 Nordeste 0 -- -- 26
2020-07-03 10:00:00 24 5 Norte 12 Noroeste 0 -- -- 32
2020-07-03 09:00:00 21.7 8 Noroeste 14 Noroeste 0 -- -- 37
2020-07-03 08:00:00 20.3 9 Noroeste 21 Norte 0 -- -- 39
2020-07-03 07:00:00 19.7 9 Noroeste 18 Noroeste 0 -- -- 41
2020-07-03 06:00:00 21 10 Noroeste 17 Noroeste 0 -- -- 37
2020-07-03 05:00:00 21.8 6 Noroeste 19 Noroeste 0 -- -- 34
2020-07-03 04:00:00 23.1 7 Noroeste 17 Noroeste 0 -- -- 32
2020-07-03 03:00:00 24 8 Oeste 14 Noroeste 0 -- -- 31
2020-07-03 02:00:00 25.8 5 Oeste 20 Noroeste 0 -- -- 28
2020-07-03 01:00:00 27.5 9 Noroeste 16 Noroeste 0 -- -- 24
2020-07-03 00:00:00 29.1 10 Noroeste 19 Noroeste 0 -- -- 22
2020-07-02 23:00:00 29.7 8 Oeste 12 Oeste 0 -- -- 22
2020-07-02 22:00:00 31.8 5 Oeste 30 Sudoeste 0 -- -- 17
2020-07-02 21:00:00 34.7 14 Sudoeste 36 Oeste 0 -- -- 19
2020-07-02 20:00:00 36.2 18 Oeste 35 Oeste 0 -- -- 14
2020-07-02 19:00:00 36.5 22 Oeste 36 Oeste 0 -- -- 15
2020-07-02 18:00:00 36.7 15 Oeste 33 Oeste 0 -- -- 15
2020-07-02 17:00:00 36.7 13 Oeste 32 Oeste 0 -- -- 15
2020-07-02 16:00:00 36.2 13 Sudoeste 28 Oeste 0 -- -- 15
2020-07-02 15:00:00 35 12 Oeste 30 Sudoeste 0 -- -- 16
2020-07-02 14:00:00 34.1 12 Sudoeste 23 Sudoeste 0 -- -- 22
2020-07-02 13:00:00 32.5 8 Sudoeste 18 Oeste 0 -- -- 24
2020-07-02 12:00:00 29.9 7 Sudoeste 18 Sudoeste 0 -- -- 34
2020-07-02 11:00:00 27.4 6 Sudoeste 11 Oeste 0 -- -- 45
2020-07-02 10:00:00 24.7 5 Oeste 14 Oeste 0 -- -- 57
2020-07-02 09:00:00 22.3 9 Oeste 15 Oeste 0 -- -- 70
2020-07-02 08:00:00 20.7 0 Calma 10 Oeste 0 -- -- 73
2020-07-02 07:00:00 19.8 4 Oeste 8 Oeste 0 -- -- 76
2020-07-02 06:00:00 20.5 2 Oeste 9 Sudoeste 0 -- -- 72
2020-07-02 05:00:00 21.3 3 Sudoeste 11 Oeste 0 -- -- 69
2020-07-02 04:00:00 22.2 6 Oeste 15 Sudoeste 0 -- -- 66
2020-07-02 03:00:00 23 8 Sudoeste 15 Sudoeste 0 -- -- 59
2020-07-02 02:00:00 24 11 Sudoeste 17 Sudoeste 0 -- -- 49
2020-07-02 01:00:00 25.4 7 Sudoeste 17 Sudoeste 0 -- -- 39
2020-07-02 00:00:00 26.8 8 Sudoeste 16 Sudoeste 0 -- -- 34
2020-07-01 23:00:00 28.5 6 Sudoeste 15 Oeste 0 -- -- 28
2020-07-01 22:00:00 30.9 8 Oeste 20 Oeste 0 -- -- 24
2020-07-01 21:00:00 34 15 Oeste 31 Sudoeste 0 -- -- 21
2020-07-01 20:00:00 35.5 15 Sudoeste 32 Noroeste 0 -- -- 18
2020-07-01 19:00:00 36 17 Oeste 32 Oeste 0 -- -- 17
2020-07-01 18:00:00 36 19 Oeste 33 Oeste 0 -- -- 16
2020-07-01 17:00:00 35.7 13 Oeste 24 Oeste 0 -- -- 18
2020-07-01 16:00:00 35.1 10 Sudoeste 24 Sudoeste 0 -- -- 20
2020-07-01 15:00:00 33.6 9 Oeste 23 Sudoeste 0 -- -- 25
2020-07-01 14:00:00 32 12 Sudoeste 24 Sudoeste 0 -- -- 31
2020-07-01 13:00:00 29.8 9 Sudoeste 18 Oeste 0 -- -- 40
2020-07-01 12:00:00 27.8 6 Sudoeste 17 Sudoeste 0 -- -- 46
2020-07-01 11:00:00 25.5 9 Sudoeste 16 Sudoeste 0 -- -- 54
2020-07-01 10:00:00 24 6 Sudoeste 13 Sudoeste 0 -- -- 61
2020-07-01 09:00:00 22.1 4 Sudoeste 10 Sur 0 -- -- 74
2020-07-01 08:00:00 21.1 4 Sudoeste 8 Sudoeste 0 -- -- 83
2020-07-01 07:00:00 20.5 5 Sudoeste 11 Sudoeste 0 -- -- 87
2020-07-01 06:00:00 20.4 6 Sudoeste 10 Sudoeste 0 -- -- 82
2020-07-01 05:00:00 20.8 2 Sudoeste 6 Oeste 0 -- -- 83
2020-07-01 04:00:00 21.2 2 Oeste 12 Oeste 0 -- -- 79
2020-07-01 03:00:00 21.7 6 Oeste 14 Sudoeste 0 -- -- 77
2020-07-01 02:00:00 22.5 8 Sudoeste 21 Sudoeste 0 -- -- 70
2020-07-01 01:00:00 24.4 8 Sudoeste 28 Oeste 0 -- -- 55
2020-07-01 00:00:00 26.4 14 Sudoeste 27 Oeste 0 -- -- 44
2020-06-30 23:00:00 28.2 17 Oeste 32 Oeste 0 -- -- 44
2020-06-30 22:00:00 30.5 15 Sudoeste 36 Oeste 0 -- -- 37
2020-06-30 21:00:00 33.7 20 Oeste 37 Oeste 0 -- -- 29
2020-06-30 20:00:00 35.8 21 Oeste 33 Oeste 0 -- -- 22
2020-06-30 19:00:00 36.7 21 Oeste 35 Oeste 0 -- -- 18
2020-06-30 18:00:00 37.1 21 Oeste 37 Oeste 0 -- -- 16
2020-06-30 17:00:00 37.2 18 Oeste 34 Sudoeste 0 -- -- 16
2020-06-30 16:00:00 36.9 12 Oeste 29 Oeste 0 -- -- 17
2020-06-30 15:00:00 36.1 13 Oeste 27 Oeste 0 -- -- 20
2020-06-30 14:00:00 34.7 9 Oeste 25 Oeste 0 -- -- 21
2020-06-30 13:00:00 32.9 10 Sudoeste 22 Sudoeste 0 -- -- 23
2020-06-30 12:00:00 31.1 5 Sur 17 Oeste 0 -- -- 28
2020-06-30 11:00:00 28.5 5 Norte 9 Norte 0 -- -- 36
2020-06-30 10:00:00 26.9 4 Nordeste 8 Norte 0 -- -- 39
2020-06-30 09:00:00 24 4 Este 7 Nordeste 0 -- -- 48
2020-06-30 08:00:00 20.4 3 Sudeste 6 Sudeste 0 -- -- 60
2020-06-30 07:00:00 20.4 4 Sudeste 10 Sur 0 -- -- 60
2020-06-30 06:00:00 21.4 2 Sudoeste 7 Oeste 0 -- -- 56
2020-06-30 05:00:00 23 8 Oeste 17 Oeste 0 -- -- 50
2020-06-30 04:00:00 24.1 5 Oeste 12 Oeste 0 -- -- 45
2020-06-30 03:00:00 26.4 7 Sudoeste 22 Sudoeste 0 -- -- 35
2020-06-30 02:00:00 27.2 9 Sudoeste 18 Sur 0 -- -- 36
2020-06-30 01:00:00 28.4 10 Sur 19 Sur 0 -- -- 35
2020-06-30 00:00:00 29.6 12 Sudoeste 17 Sudoeste 0 -- -- 29
2020-06-29 23:00:00 31.9 6 Oeste 18 Sudoeste 0 -- -- 25
2020-06-29 22:00:00 33.9 10 Sudoeste 18 Oeste 0 -- -- 22
2020-06-29 21:00:00 37.6 9 Oeste 15 Oeste 0 -- -- 18
2020-06-29 20:00:00 39 10 Oeste 16 Noroeste 0 -- -- 15
2020-06-29 19:00:00 39.4 8 Oeste 20 Norte 0 -- -- 15
2020-06-29 18:00:00 39.2 10 Noroeste 19 Noroeste 0 -- -- 15
2020-06-29 17:00:00 39.5 7 Oeste 17 Oeste 0 -- -- 13
2020-06-29 16:00:00 38.4 10 Sudeste 16 Sudeste 0 -- -- 16
2020-06-29 15:00:00 37.3 7 Sudoeste 16 Sudoeste 0 -- -- 18
2020-06-29 14:00:00 35.8 7 Sudeste 16 Noroeste 0 -- -- 22
2020-06-29 13:00:00 34.4 5 Este 14 Sudoeste 0 -- -- 24
2020-06-29 12:00:00 32.7 6 Sudeste 19 Sudoeste 0 -- -- 28
2020-06-29 11:00:00 30.5 7 Este 15 Este 0 -- -- 32
2020-06-29 10:00:00 27.5 6 Sudeste 10 Nordeste 0 -- -- 40
2020-06-29 09:00:00 25 4 Nordeste 7 Nordeste 0 -- -- 48
2020-06-29 08:00:00 22.2 4 Este 7 Este 0 -- -- 55
2020-06-29 07:00:00 21.1 4 Este 5 Este 0 -- -- 60
2020-06-29 06:00:00 22 0 Calma 5 Sudoeste 0 -- -- 56
2020-06-29 05:00:00 23.1 2 Sudoeste 5 Oeste 0 -- -- 51
2020-06-29 04:00:00 24.3 4 Oeste 6 Oeste 0 -- -- 47
2020-06-29 03:00:00 25.6 4 Sur 10 Sur 0 -- -- 45
2020-06-29 02:00:00 27.1 8 Oeste 20 Sudoeste 0 -- -- 42
2020-06-29 01:00:00 28.9 11 Sudoeste 25 Sudoeste 0 -- -- 35
2020-06-29 00:00:00 30.1 10 Sudoeste 19 Sudoeste 0 -- -- 31
2020-06-28 23:00:00 31.4 12 Oeste 14 Oeste 0 -- -- 25
2020-06-28 22:00:00 33.3 10 Oeste 14 Sudoeste 0 -- -- 23
2020-06-28 21:00:00 36.7 9 Oeste 15 Oeste 0 -- -- 19
2020-06-28 20:00:00 38.3 6 Oeste 18 Oeste 0 -- -- 13
2020-06-28 19:00:00 38.5 9 Oeste 16 Oeste 0 -- -- 12
2020-06-28 18:00:00 38.2 5 Sudoeste 16 Sudoeste 0 -- -- 12
2020-06-28 17:00:00 37.8 8 Sudoeste 20 Sudoeste 0 -- -- 13
2020-06-28 16:00:00 37.3 10 Sur 18 Sudeste 0 -- -- 17
2020-06-28 15:00:00 36.3 4 Noroeste 19 Sudeste 0 -- -- 19
2020-06-28 14:00:00 35 5 Sudoeste 15 Nordeste 0 -- -- 21
2020-06-28 13:00:00 33.3 6 Este 15 Nordeste 0 -- -- 26
2020-06-28 12:00:00 30.6 5 Nordeste 14 Este 0 -- -- 34
2020-06-28 11:00:00 28.5 6 Este 13 Este 0 -- -- 39
2020-06-28 10:00:00 26.3 6 Nordeste 10 Norte 0 -- -- 44
2020-06-28 09:00:00 23.8 4 Este 8 Este 0 -- -- 53
2020-06-28 08:00:00 20.5 3 Este 6 Este 0 -- -- 65
2020-06-28 07:00:00 18.9 3 Sur 7 Sudeste 0 -- -- 71
2020-06-28 06:00:00 19.5 3 Sudeste 5 Sudeste 0 -- -- 67
2020-06-28 05:00:00 20.3 3 Este 4 Este 0 -- -- 64
2020-06-28 04:00:00 21.1 0 Calma 8 Sudoeste 0 -- -- 61
2020-06-28 03:00:00 22 5 Sudoeste 10 Sudoeste 0 -- -- 58
2020-06-28 02:00:00 23.2 3 Oeste 15 Sudoeste 0 -- -- 54
2020-06-28 01:00:00 24.8 5 Oeste 20 Sudoeste 0 -- -- 51
2020-06-28 00:00:00 26.5 12 Sudoeste 21 Sudoeste 0 -- -- 46
2020-06-27 23:00:00 28.5 9 Oeste 32 Oeste 0 -- -- 39
2020-06-27 22:00:00 30.3 22 Oeste 32 Oeste 0 -- -- 33
2020-06-27 21:00:00 33.3 12 Oeste 24 Oeste 0 -- -- 23
2020-06-27 20:00:00 34.7 13 Oeste 26 Oeste 0 -- -- 20
2020-06-27 19:00:00 35.3 9 Oeste 19 Oeste 0 -- -- 19
2020-06-27 18:00:00 34.8 10 Sudoeste 22 Sudoeste 0 -- -- 19
2020-06-27 17:00:00 34.4 9 Sur 20 Oeste 0 -- -- 20
2020-06-27 16:00:00 33.3 10 Sudoeste 18 Sudoeste 0 -- -- 21
2020-06-27 15:00:00 32.3 8 Oeste 15 Sur 0 -- -- 24
2020-06-27 14:00:00 30.6 6 Sudoeste 15 Oeste 0 -- -- 25
2020-06-27 13:00:00 29.3 6 Noroeste 13 Oeste 0 -- -- 29
2020-06-27 12:00:00 26.9 6 Sur 14 Sudeste 0 -- -- 34
2020-06-27 11:00:00 24.6 6 Norte 11 Este 0 -- -- 41
2020-06-27 10:00:00 22.5 3 Noroeste 10 Nordeste 0 -- -- 47
2020-06-27 09:00:00 20 3 Norte 6 Este 0 -- -- 62
2020-06-27 08:00:00 16.9 2 Este 5 Este 0 -- -- 75
2020-06-27 07:00:00 16.6 0 Calma 4 Oeste 0 -- -- 75
2020-06-27 06:00:00 17.4 4 Oeste 7 Oeste 0 -- -- 72
2020-06-27 05:00:00 17.8 3 Sudoeste 7 Oeste 0 -- -- 69
2020-06-27 04:00:00 18.5 5 Oeste 10 Oeste 0 -- -- 66
2020-06-27 03:00:00 19.4 4 Sudoeste 11 Sudoeste 0 -- -- 61
2020-06-27 02:00:00 20.5 7 Sudoeste 22 Sudoeste 0 -- -- 53
2020-06-27 01:00:00 21.5 12 Sudoeste 22 Sudoeste 0 -- -- 49
2020-06-27 00:00:00 23 11 Sudoeste 26 Oeste 0 -- -- 48
2020-06-26 23:00:00 25 12 Oeste 31 Sudoeste 0 -- -- 42
2020-06-26 22:00:00 27 16 Sudoeste 36 Sudoeste 0 -- -- 37
2020-06-26 21:00:00 29.6 21 Oeste 36 Oeste 0 -- -- 33
2020-06-26 20:00:00 31.4 18 Oeste 33 Oeste 0 -- -- 24
2020-06-26 19:00:00 31.7 16 Oeste 35 Oeste 0 -- -- 27
2020-06-26 18:00:00 31.5 16 Sudoeste 33 Oeste 0 -- -- 20
2020-06-26 17:00:00 31.4 16 Oeste 33 Oeste 0 -- -- 22
2020-06-26 16:00:00 29.7 17 Oeste 30 Oeste 0 -- -- 39
2020-06-26 15:00:00 28 18 Oeste 27 Oeste 0 -- -- 46
2020-06-26 14:00:00 27.2 12 Oeste 24 Noroeste 0 -- -- 47
2020-06-26 13:00:00 25.2 10 Oeste 18 Oeste 0 -- -- 52
2020-06-26 12:00:00 23.5 7 Noroeste 16 Sudoeste 0 -- -- 59
2020-06-26 11:00:00 22.2 8 Sudoeste 17 Oeste 0 -- -- 63
2020-06-26 10:00:00 21.8 7 Sudoeste 15 Sudoeste 0 -- -- 65
2020-06-26 09:00:00 20.8 7 Sudoeste 15 Oeste 0 -- -- 71
2020-06-26 08:00:00 20.2 4 Sudoeste 13 Sudoeste 0 -- -- 76
2020-06-26 07:00:00 19.9 6 Oeste 18 Oeste 0 -- -- 77
2020-06-26 06:00:00 19.5 8 Sudoeste 13 Oeste 0 -- -- 78
2020-06-26 05:00:00 19.6 5 Sudoeste 9 Sudoeste 0 -- -- 76
2020-06-26 04:00:00 20.4 6 Sudoeste 11 Oeste 0 -- -- 70
2020-06-26 03:00:00 21.3 8 Oeste 17 Sudoeste 0 -- -- 65
2020-06-26 02:00:00 22.1 8 Oeste 27 Oeste 0 -- -- 63
2020-06-26 01:00:00 22.7 16 Sudoeste 27 Sudoeste 0 -- -- 60
2020-06-26 00:00:00 24 14 Sudoeste 28 Sudoeste 0 -- -- 55
2020-06-25 23:00:00 25.9 13 Sudoeste 28 Sudoeste 0 -- -- 50
2020-06-25 22:00:00 27.5 12 Oeste 34 Oeste 0 -- -- 45
2020-06-25 21:00:00 29.4 22 Oeste 37 Oeste 0 -- -- 40
2020-06-25 20:00:00 30.9 23 Oeste 40 Oeste 0 -- -- 36
2020-06-25 19:00:00 31.7 21 Oeste 37 Oeste 0 -- -- 33
2020-06-25 18:00:00 32.3 22 Oeste 36 Oeste 0 -- -- 32
2020-06-25 17:00:00 32.4 18 Oeste 39 Oeste 0 -- -- 30
2020-06-25 16:00:00 32.4 17 Oeste 33 Oeste 0 -- -- 30
2020-06-25 15:00:00 31.5 18 Oeste 34 Oeste 0 -- -- 31
2020-06-25 14:00:00 31 14 Oeste 26 Oeste 0 -- -- 30
2020-06-25 13:00:00 29.4 12 Oeste 24 Oeste 0 -- -- 34
2020-06-25 12:00:00 28.1 12 Oeste 22 Oeste 0 -- -- 36
2020-06-25 11:00:00 26.8 10 Oeste 24 Oeste 0 -- -- 38
2020-06-25 10:00:00 24.6 14 Oeste 23 Oeste 0 -- -- 44
2020-06-25 09:00:00 22.9 6 Oeste 12 Sudoeste 0 -- -- 50
2020-06-25 08:00:00 21 2 Sudeste 5 Sudoeste 0 -- -- 61
2020-06-25 07:00:00 20.5 3 Sur 13 Sudoeste 0 -- -- 62
2020-06-25 06:00:00 21 8 Sudoeste 12 Sur 0 -- -- 60
2020-06-25 05:00:00 22.3 6 Sudoeste 18 Sudoeste 0 -- -- 56
2020-06-25 04:00:00 22.9 10 Sudoeste 15 Sudoeste 0 -- -- 53
2020-06-25 03:00:00 23.8 3 Sudoeste 8 Oeste 0 -- -- 48
2020-06-25 02:00:00 25.2 4 Sudoeste 17 Oeste 0 -- -- 44
2020-06-25 01:00:00 26.2 10 Sudoeste 20 Sudoeste 0 -- -- 41
2020-06-25 00:00:00 27.4 12 Oeste 31 Oeste 0 -- -- 39
2020-06-24 23:00:00 29.3 12 Oeste 31 Oeste 0 -- -- 37
2020-06-24 22:00:00 31.4 14 Sudoeste 28 Oeste 0 -- -- 32
2020-06-24 21:00:00 34.2 14 Oeste 28 Sudoeste 0 -- -- 23
2020-06-24 20:00:00 36.8 14 Oeste 24 Oeste 0 -- -- 18
2020-06-24 19:00:00 37.5 13 Sudoeste 35 Sudoeste 0 -- -- 18
2020-06-24 18:00:00 38.5 15 Sur 27 Sur 0 -- -- 11
2020-06-24 17:00:00 37.4 10 Oeste 20 Noroeste 0 -- -- 16
2020-06-24 16:00:00 36.7 10 Noroeste 19 Noroeste 0 -- -- 17
2020-06-24 15:00:00 36.1 9 Noroeste 19 Sudoeste 0 -- -- 17
2020-06-24 14:00:00 35 5 Oeste 14 Sur 0 -- -- 21
2020-06-24 13:00:00 33.3 6 Sur 18 Sur 0 -- -- 23
2020-06-24 12:00:00 30.9 5 Sudeste 12 Sur 0 -- -- 29
2020-06-24 11:00:00 28.6 4 Este 10 Sudeste 0 -- -- 34
2020-06-24 10:00:00 26.3 4 Norte 9 Este 0 -- -- 40
2020-06-24 09:00:00 24.3 4 Nordeste 6 Norte 0 -- -- 46
2020-06-24 08:00:00 21 4 Sudeste 8 Este 0 -- -- 55
2020-06-24 07:00:00 20.6 2 Norte 6 Este 0 -- -- 54
2020-06-24 06:00:00 21.6 0 Calma 5 Sudoeste 0 -- -- 51
2020-06-24 05:00:00 22.5 3 Sur 14 Sur 0 -- -- 48
2020-06-24 04:00:00 23.3 8 Sudoeste 15 Sur 0 -- -- 47
2020-06-24 03:00:00 25.1 4 Oeste 19 Oeste 0 -- -- 43
2020-06-24 02:00:00 27 10 Oeste 18 Sudoeste 0 -- -- 36
2020-06-24 01:00:00 28.5 8 Sudoeste 17 Sudoeste 0 -- -- 32
2020-06-24 00:00:00 29.8 9 Sudoeste 24 Sudoeste 0 -- -- 21
2020-06-23 23:00:00 31.3 13 Sudoeste 28 Sur 0 -- -- 17
2020-06-23 22:00:00 32.2 15 Sur 26 Sur 0 -- -- 17
2020-06-23 21:00:00 34.2 14 Sur 29 Sur 0 -- -- 14
2020-06-23 20:00:00 35.8 18 Sur 36 Sur 0 -- -- 11
2020-06-23 19:00:00 36.2 16 Sur 33 Sur 0 -- -- 12
2020-06-23 18:00:00 36.3 12 Sur 28 Sudoeste 0 -- -- 13
2020-06-23 17:00:00 38.2 12 Sudoeste 24 Sudoeste 0 -- -- 10
2020-06-23 16:00:00 39.4 10 Sur 25 Sur 0 -- -- 11
2020-06-23 15:00:00 38.7 6 Sudeste 22 Sur 0 -- -- 11
2020-06-23 14:00:00 37.1 7 Este 17 Norte 0 -- -- 12
2020-06-23 13:00:00 35.6 7 Este 24 Este 0 -- -- 15
2020-06-23 12:00:00 32.8 13 Este 22 Este 0 -- -- 18
2020-06-23 11:00:00 30.1 14 Este 23 Nordeste 0 -- -- 22
2020-06-23 10:00:00 27 10 Nordeste 19 Este 0 -- -- 28
2020-06-23 09:00:00 23.8 12 Este 18 Este 0 -- -- 34
2020-06-23 08:00:00 21.8 5 Este 8 Este 0 -- -- 40
2020-06-23 07:00:00 20.9 6 Este 11 Sudeste 0 -- -- 39
2020-06-23 06:00:00 21.4 5 Sudeste 10 Sudeste 0 -- -- 38
2020-06-23 05:00:00 22.5 4 Sudeste 8 Este 0 -- -- 35
2020-06-23 04:00:00 22.1 6 Sudeste 9 Sudeste 0 -- -- 35
2020-06-23 03:00:00 23.8 5 Sudeste 8 Sudeste 0 -- -- 30
2020-06-23 02:00:00 24.9 3 Este 9 Noroeste 0 -- -- 28
2020-06-23 01:00:00 26.9 3 Noroeste 8 Oeste 0 -- -- 23
2020-06-23 00:00:00 28.3 3 Noroeste 30 Sudoeste 0 -- -- 20
2020-06-22 23:00:00 29.7 17 Sur 24 Sur 0 -- -- 17
2020-06-22 22:00:00 31.7 10 Sur 17 Sur 0 -- -- 16
2020-06-22 21:00:00 35.6 9 Sur 25 Sur 0 -- -- 12
2020-06-22 20:00:00 38 14 Sur 24 Sudoeste 0 -- -- 9
2020-06-22 19:00:00 39.1 12 Sudoeste 30 Oeste 0 -- -- 8
2020-06-22 18:00:00 39.4 15 Sur 31 Sur 0 -- -- 8
2020-06-22 17:00:00 39.3 14 Sur 33 Sur 0 -- -- 9
2020-06-22 16:00:00 39.4 19 Sur 35 Sur 0 -- -- 9
2020-06-22 15:00:00 39 15 Sur 36 Sudeste 0 -- -- 10
2020-06-22 14:00:00 38 9 Sudoeste 28 Sudeste 0 -- -- 11
2020-06-22 13:00:00 35.9 10 Este 23 Este 0 -- -- 12
2020-06-22 12:00:00 33.2 12 Nordeste 21 Nordeste 0 -- -- 15
2020-06-22 11:00:00 30.8 12 Nordeste 21 Nordeste 0 -- -- 18
2020-06-22 10:00:00 27.1 11 Este 16 Nordeste 0 -- -- 22
2020-06-22 09:00:00 23.7 6 Nordeste 12 Nordeste 0 -- -- 32
2020-06-22 08:00:00 21.2 5 Este 9 Sudeste 0 -- -- 37
2020-06-22 07:00:00 19.6 4 Sudeste 11 Este 0 -- -- 39
2020-06-22 06:00:00 20.6 8 Este 10 Este 0 -- -- 39
2020-06-22 05:00:00 21.4 5 Este 8 Este 0 -- -- 36
2020-06-22 04:00:00 22.7 0 Calma 7 Sudeste 0 -- -- 31
2020-06-22 03:00:00 23.8 3 Nordeste 7 Noroeste 0 -- -- 31
2020-06-22 02:00:00 25.4 4 Sur 6 Sur 0 -- -- 25
2020-06-22 01:00:00 26.5 3 Oeste 5 Norte 0 -- -- 25
2020-06-22 00:00:00 27.1 5 Nordeste 11 Noroeste 0 -- -- 25
2020-06-21 23:00:00 29.8 5 Noroeste 11 Oeste 0 -- -- 22
2020-06-21 22:00:00 32.8 5 Oeste 12 Oeste 0 -- -- 18
2020-06-21 21:00:00 36.8 6 Sudoeste 11 Oeste 0 -- -- 9
2020-06-21 20:00:00 37.8 6 Sudoeste 12 Sur 0 -- -- 7
2020-06-21 19:00:00 37.9 8 Sudoeste 15 Sudoeste 0 -- -- 6
2020-06-21 18:00:00 37.8 6 Oeste 15 Sudoeste 0 -- -- 7
2020-06-21 17:00:00 37.3 5 Noroeste 18 Este 0 -- -- 9
2020-06-21 16:00:00 36.7 5 Oeste 19 Sur 0 -- -- 11
2020-06-21 15:00:00 35.5 6 Sudoeste 13 Oeste 0 -- -- 12
2020-06-21 14:00:00 34.8 5 Sudeste 14 Oeste 0 -- -- 13
2020-06-21 13:00:00 32.9 5 Noroeste 14 Sur 0 -- -- 19
2020-06-21 12:00:00 30.8 5 Sudeste 12 Sudeste 0 -- -- 22
2020-06-21 11:00:00 28.7 3 Sudeste 8 Este 0 -- -- 27
2020-06-21 10:00:00 25.6 4 Norte 8 Noroeste 0 -- -- 34
2020-06-21 09:00:00 23.2 3 Noroeste 6 Noroeste 0 -- -- 40
2020-06-21 08:00:00 19.8 3 Este 9 Este 0 -- -- 49
2020-06-21 07:00:00 17.9 5 Este 6 Este 0 -- -- 53
2020-06-21 06:00:00 19.2 4 Nordeste 11 Oeste 0 -- -- 49
2020-06-21 05:00:00 22.7 5 Noroeste 13 Sudoeste 0 -- -- 37
2020-06-21 04:00:00 20.9 10 Sudoeste 13 Sudoeste 0 -- -- 41
2020-06-21 03:00:00 22.2 6 Sudoeste 14 Sudoeste 0 -- -- 39
2020-06-21 02:00:00 23.9 7 Sudoeste 21 Sudoeste 0 -- -- 34
2020-06-21 01:00:00 25.1 9 Sudoeste 13 Oeste 0 -- -- 32
2020-06-21 00:00:00 26.5 3 Oeste 14 Oeste 0 -- -- 28
2020-06-20 23:00:00 28 7 Oeste 15 Sudoeste 0 -- -- 22
2020-06-20 22:00:00 30.5 8 Sudoeste 15 Sudoeste 0 -- -- 16
2020-06-20 21:00:00 34.1 8 Sudoeste 21 Oeste 0 -- -- 13
2020-06-20 20:00:00 35.4 9 Oeste 24 Oeste 0 -- -- 12
2020-06-20 19:00:00 36 8 Oeste 18 Sudoeste 0 -- -- 10
2020-06-20 18:00:00 35.6 9 Oeste 23 Sudoeste 0 -- -- 11
2020-06-20 17:00:00 35.2 10 Noroeste 25 Noroeste 0 -- -- 12
2020-06-20 16:00:00 34.3 7 Oeste 21 Noroeste 0 -- -- 16
2020-06-20 15:00:00 34.2 9 Sur 18 Sudoeste 0 -- -- 17
2020-06-20 14:00:00 32.7 6 Nordeste 14 Sudeste 0 -- -- 18
2020-06-20 13:00:00 31.2 6 Nordeste 14 Sudeste 0 -- -- 23
2020-06-20 12:00:00 28.9 4 Este 14 Este 0 -- -- 27
2020-06-20 11:00:00 26 9 Este 15 Sudeste 0 -- -- 36
2020-06-20 10:00:00 23 6 Nordeste 11 Nordeste 0 -- -- 44
2020-06-20 09:00:00 19.9 5 Nordeste 8 Este 0 -- -- 52
2020-06-20 08:00:00 17 3 Nordeste 9 Este 0 -- -- 62
2020-06-20 07:00:00 15.6 3 Este 6 Este 0 -- -- 67
2020-06-20 06:00:00 16.3 2 Este 4 Este 0 -- -- 64
2020-06-20 05:00:00 16.6 4 Este 6 Sudeste 0 -- -- 62
2020-06-20 04:00:00 17.6 4 Sudeste 5 Sudeste 0 -- -- 58
2020-06-20 03:00:00 18.4 0 Calma 9 Sudoeste 0 -- -- 55
2020-06-20 02:00:00 19.5 7 Sudoeste 13 Sudoeste 0 -- -- 51
2020-06-20 01:00:00 21.1 7 Sudoeste 13 Sudoeste 0 -- -- 45
2020-06-20 00:00:00 22.7 5 Oeste 17 Sudoeste 0 -- -- 41
2020-06-19 23:00:00 24.7 9 Sudoeste 21 Sudoeste 0 -- -- 36
2020-06-19 22:00:00 27.2 10 Sudoeste 19 Oeste 0 -- -- 26
2020-06-19 21:00:00 30.1 11 Oeste 22 Sudoeste 0 -- -- 19
2020-06-19 20:00:00 31.2 13 Sudoeste 23 Oeste 0 -- -- 18
2020-06-19 19:00:00 31.5 13 Oeste 26 Oeste 0 -- -- 17
2020-06-19 18:00:00 31.2 15 Oeste 27 Oeste 0 -- -- 19
2020-06-19 17:00:00 31 15 Oeste 30 Oeste 0 -- -- 22
2020-06-19 16:00:00 30.4 14 Oeste 30 Oeste 0 -- -- 25
2020-06-19 15:00:00 29.7 12 Oeste 30 Oeste 0 -- -- 28
2020-06-19 14:00:00 28.4 9 Sudoeste 27 Oeste 0 -- -- 31
2020-06-19 13:00:00 26.7 9 Sudoeste 21 Oeste 0 -- -- 38
2020-06-19 12:00:00 24.3 6 Oeste 16 Sudoeste 0 -- -- 48
2020-06-19 11:00:00 22.3 9 Oeste 18 Oeste 0 -- -- 56
2020-06-19 10:00:00 20.6 9 Oeste 20 Oeste 0 -- -- 64
2020-06-19 09:00:00 18.5 9 Oeste 17 Oeste 0 -- -- 69
2020-06-19 08:00:00 16.8 0 Calma 6 Oeste 0 -- -- 70
2020-06-19 07:00:00 15.4 2 Oeste 6 Sudoeste 0 -- -- 74
2020-06-19 06:00:00 16.1 0 Calma 7 Sudoeste 0 -- -- 71
2020-06-19 05:00:00 16.7 5 Sudoeste 10 Sudoeste 0 -- -- 67
2020-06-19 04:00:00 17.1 6 Sudoeste 14 Sudoeste 0 -- -- 61
2020-06-19 03:00:00 17.6 6 Oeste 9 Oeste 0 -- -- 59
2020-06-19 02:00:00 18.8 4 Sudoeste 11 Oeste 0 -- -- 54
2020-06-19 01:00:00 19.8 7 Oeste 19 Sudoeste 0 -- -- 51
2020-06-19 00:00:00 20.8 6 Sudoeste 30 Oeste 0 -- -- 48
2020-06-18 23:00:00 22.7 10 Sudoeste 27 Oeste 0 -- -- 42
2020-06-18 22:00:00 24.8 12 Sudoeste 33 Sudoeste 0 -- -- 33
2020-06-18 21:00:00 28 15 Sudoeste 35 Sudoeste 0 -- -- 26
2020-06-18 20:00:00 30.9 15 Oeste 37 Oeste 0 -- -- 16
2020-06-18 19:00:00 31.4 19 Oeste 36 Oeste 0 -- -- 17
2020-06-18 18:00:00 31.5 17 Oeste 37 Oeste 0 -- -- 15
2020-06-18 17:00:00 31.2 15 Oeste 35 Oeste 0 -- -- 17
2020-06-18 16:00:00 30.6 21 Oeste 34 Oeste 0 -- -- 18
2020-06-18 15:00:00 30 12 Oeste 30 Oeste 0 -- -- 20
2020-06-18 14:00:00 29 10 Oeste 22 Oeste 0 -- -- 19
2020-06-18 13:00:00 28 7 Noroeste 18 Oeste 0 -- -- 25
2020-06-18 12:00:00 26.8 5 Sudoeste 10 Este 0 -- -- 28
2020-06-18 11:00:00 24.8 6 Este 13 Este 0 -- -- 33
2020-06-18 10:00:00 22.3 5 Norte 12 Nordeste 0 -- -- 40
2020-06-18 09:00:00 19.7 4 Norte 7 Norte 0 -- -- 46
2020-06-18 08:00:00 16.9 2 Nordeste 7 Este 0 -- -- 57
2020-06-18 07:00:00 14.6 0 Calma 4 Sudeste 0 -- -- 77
2020-06-18 06:00:00 15.2 3 Este 6 Sur 0 -- -- 75
2020-06-18 05:00:00 16.4 5 Sur 6 Sur 0 -- -- 72
2020-06-18 04:00:00 17.3 3 Noroeste 8 Noroeste 0 -- -- 67
2020-06-18 03:00:00 18.4 4 Sur 5 Sudoeste 0 -- -- 62
2020-06-18 02:00:00 19.8 0 Calma 19 Sudoeste 0 -- -- 56
2020-06-18 01:00:00 21.4 9 Sudoeste 21 Sudoeste 0 -- -- 51
2020-06-18 00:00:00 23 11 Sudoeste 23 Sudoeste 0 -- -- 45
2020-06-17 23:00:00 24.6 9 Noroeste 24 Sudoeste 0 -- -- 37
2020-06-17 22:00:00 26.9 10 Oeste 21 Oeste 0 -- -- 22
2020-06-17 21:00:00 29.6 12 Oeste 30 Oeste 0 -- -- 19
2020-06-17 20:00:00 30.6 18 Oeste 31 Oeste 0 -- -- 18
2020-06-17 19:00:00 31 18 Oeste 36 Oeste 0 -- -- 18
2020-06-17 18:00:00 30.7 16 Oeste 32 Oeste 0 -- -- 21
2020-06-17 17:00:00 30.5 16 Oeste 31 Oeste 0 -- -- 20
2020-06-17 16:00:00 29.8 15 Oeste 31 Oeste 0 -- -- 22
2020-06-17 15:00:00 28.8 17 Sudoeste 28 Oeste 0 -- -- 23
2020-06-17 14:00:00 27.3 11 Oeste 28 Oeste 0 -- -- 26
2020-06-17 13:00:00 26 14 Oeste 29 Oeste 0 -- -- 31
2020-06-17 12:00:00 24.8 9 Oeste 21 Oeste 0 -- -- 39
2020-06-17 11:00:00 22.8 8 Noroeste 19 Noroeste 0 -- -- 40
2020-06-17 10:00:00 20.9 13 Noroeste 22 Noroeste 0 -- -- 44
2020-06-17 09:00:00 19.5 12 Noroeste 19 Noroeste 0 -- -- 53
2020-06-17 08:00:00 18.6 6 Noroeste 16 Norte 0 -- -- 62
2020-06-17 07:00:00 17.7 9 Noroeste 14 Noroeste 0 -- -- 66
2020-06-17 06:00:00 17.6 4 Noroeste 8 Oeste 0 -- -- 75
2020-06-17 05:00:00 18.2 4 Sudoeste 14 Sudoeste 0 -- -- 75
2020-06-17 04:00:00 18.9 9 Sudoeste 16 Sudoeste 0 -- -- 75
2020-06-17 03:00:00 19.4 9 Sudoeste 17 Sudoeste 0 -- -- 73
2020-06-17 02:00:00 20.3 9 Oeste 16 Sudoeste 0 -- -- 68
2020-06-17 01:00:00 21.3 12 Sudoeste 27 Oeste 0 -- -- 63
2020-06-17 00:00:00 22.4 13 Sudoeste 31 Sudoeste 0 -- -- 57
2020-06-16 23:00:00 23.9 14 Sudoeste 27 Sudoeste 0 -- -- 51
2020-06-16 22:00:00 25.8 9 Oeste 24 Noroeste 0 -- -- 35
2020-06-16 21:00:00 28 18 Oeste 36 Oeste 0 -- -- 29
2020-06-16 20:00:00 29 18 Noroeste 44 Oeste 0 -- -- 27
2020-06-16 19:00:00 29.9 23 Oeste 42 Oeste 0 -- -- 27
2020-06-16 18:00:00 29.7 18 Oeste 33 Sudoeste 0 -- -- 28
2020-06-16 17:00:00 29.4 21 Oeste 37 Noroeste 0 -- -- 24
2020-06-16 16:00:00 29.8 20 Oeste 34 Oeste 0 -- -- 23
2020-06-16 15:00:00 29.4 17 Oeste 40 Oeste 0 -- -- 25
2020-06-16 14:00:00 28.3 15 Sudoeste 28 Oeste 0 -- -- 27
2020-06-16 13:00:00 27 10 Oeste 25 Oeste 0 -- -- 30
2020-06-16 12:00:00 25.1 10 Oeste 21 Oeste 0 -- -- 35
2020-06-16 11:00:00 23.5 8 Oeste 16 Oeste 0 -- -- 40
2020-06-16 10:00:00 21.7 8 Oeste 17 Oeste 0 -- -- 46
2020-06-16 09:00:00 20 7 Oeste 13 Oeste 0 -- -- 55
2020-06-16 08:00:00 17.3 3 Oeste 8 Oeste 0 -- -- 65
2020-06-16 07:00:00 15.8 3 Oeste 5 Oeste 0 -- -- 69
2020-06-16 06:00:00 16.6 3 Oeste 7 Oeste 0 -- -- 66
2020-06-16 05:00:00 17.7 6 Oeste 12 Oeste 0 -- -- 62
2020-06-16 04:00:00 17.6 4 Oeste 9 Oeste 0 -- -- 61
2020-06-16 03:00:00 17.6 6 Oeste 10 Sudoeste 0 -- -- 60
2020-06-16 02:00:00 18.5 5 Oeste 17 Sudoeste 0 -- -- 55
2020-06-16 01:00:00 19.3 9 Sudoeste 18 Sudoeste 0 -- -- 51
2020-06-16 00:00:00 20.7 7 Sudoeste 31 Oeste 0 -- -- 45
2020-06-15 23:00:00 22.6 15 Sudoeste 27 Oeste 0 -- -- 40
2020-06-15 22:00:00 24.9 13 Oeste 33 Oeste 0 -- -- 33
2020-06-15 21:00:00 28.4 14 Oeste 31 Oeste 0 -- -- 24
2020-06-15 20:00:00 29.8 14 Sudoeste 30 Oeste 0 -- -- 23
2020-06-15 19:00:00 29.9 14 Sudoeste 28 Oeste 0 -- -- 22
2020-06-15 18:00:00 29.9 14 Sudoeste 31 Oeste 0 -- -- 21
2020-06-15 17:00:00 29.1 15 Oeste 34 Oeste 0 -- -- 22
2020-06-15 16:00:00 28.5 14 Oeste 31 Oeste 0 -- -- 24
2020-06-15 15:00:00 27.8 18 Oeste 35 Oeste 0 -- -- 25
2020-06-15 14:00:00 27.1 14 Oeste 26 Oeste 0 -- -- 27
2020-06-15 13:00:00 26.2 9 Oeste 21 Oeste 0 -- -- 29
2020-06-15 12:00:00 24.7 5 Este 13 Este 0 -- -- 33
2020-06-15 11:00:00 23.1 5 Sudeste 17 Sudoeste 0 -- -- 40
2020-06-15 10:00:00 19.9 4 Norte 8 Norte 0 -- -- 51
2020-06-15 09:00:00 17.6 5 Nordeste 8 Este 0 -- -- 62
2020-06-15 08:00:00 15 0 Calma 6 Este 0 -- -- 71
2020-06-15 07:00:00 13.7 2 Sudeste 4 Sur 0 -- -- 78
2020-06-15 06:00:00 14.5 2 Sudoeste 5 Oeste 0 -- -- 76
2020-06-15 05:00:00 15.1 3 Sudoeste 6 Sudoeste 0 -- -- 71
2020-06-15 04:00:00 15.8 4 Sudoeste 7 Sudoeste 0 -- -- 67
2020-06-15 03:00:00 16.8 3 Sudoeste 12 Sudoeste 0 -- -- 62
2020-06-15 02:00:00 17.7 6 Sudoeste 13 Sudoeste 0 -- -- 58
2020-06-15 01:00:00 18.6 5 Oeste 19 Sudoeste 0 -- -- 51
2020-06-15 00:00:00 19.7 11 Sudoeste 20 Oeste 0 -- -- 48
2020-06-14 23:00:00 20.8 10 Sudoeste 26 Sudoeste 0 -- -- 43
2020-06-14 22:00:00 22.6 11 Sudoeste 40 Sudoeste 0 -- -- 38
2020-06-14 21:00:00 25.1 19 Sudoeste 36 Sudoeste 0 -- -- 31
2020-06-14 20:00:00 27.1 25 Oeste 42 Oeste 0 -- -- 27
2020-06-14 19:00:00 28.8 21 Oeste 35 Oeste 0 -- -- 24
2020-06-14 18:00:00 29.1 15 Sudoeste 39 Oeste 0 -- -- 22
2020-06-14 17:00:00 29.1 14 Sudoeste 29 Oeste 0 -- -- 21
2020-06-14 16:00:00 28.9 14 Oeste 36 Oeste 0 -- -- 22
2020-06-14 15:00:00 27.9 12 Oeste 27 Oeste 0 -- -- 24
2020-06-14 14:00:00 27.5 11 Oeste 24 Oeste 0 -- -- 24
2020-06-14 13:00:00 26.4 9 Oeste 20 Oeste 0 -- -- 23
2020-06-14 12:00:00 24.4 4 Oeste 11 Oeste 0 -- -- 32
2020-06-14 11:00:00 22.3 8 Oeste 13 Oeste 0 -- -- 39
2020-06-14 10:00:00 20.3 5 Noroeste 13 Noroeste 0 -- -- 45
2020-06-14 09:00:00 18.3 3 Oeste 8 Oeste 0 -- -- 58
2020-06-14 08:00:00 16.1 4 Oeste 16 Sudoeste 0 -- -- 69
2020-06-14 07:00:00 15.4 4 Sudoeste 9 Sur 0 -- -- 70
2020-06-14 06:00:00 15.9 3 Oeste 10 Sudoeste 0 -- -- 65
2020-06-14 05:00:00 16.9 5 Oeste 17 Sudoeste 0 -- -- 60
2020-06-14 04:00:00 17.3 3 Oeste 15 Sudoeste 0 -- -- 57
2020-06-14 03:00:00 17.9 8 Sudoeste 21 Sudoeste 0 -- -- 55
2020-06-14 02:00:00 18.7 10 Sudoeste 18 Sudoeste 0 -- -- 50
2020-06-14 01:00:00 19.2 9 Oeste 16 Sudoeste 0 -- -- 46
2020-06-14 00:00:00 20.1 7 Oeste 18 Oeste 0 -- -- 42
2020-06-13 23:00:00 21.3 9 Sudoeste 23 Oeste 0 -- -- 37
2020-06-13 22:00:00 22.8 8 Sudoeste 11 Sudoeste 0 -- -- 29
2020-06-13 21:00:00 25.2 6 Sudoeste 22 Oeste 0 -- -- 24
2020-06-13 20:00:00 26.5 9 Oeste 26 Oeste 0 -- -- 22
2020-06-13 19:00:00 26.5 9 Oeste 23 Noroeste 0 -- -- 21
2020-06-13 18:00:00 26.3 9 Oeste 25 Oeste 0 -- -- 22
2020-06-13 17:00:00 26.1 9 Sudoeste 24 Oeste 0 -- -- 23
2020-06-13 16:00:00 24.5 9 Sudoeste 23 Oeste 0 -- -- 27
2020-06-13 15:00:00 24.8 10 Sudoeste 25 Oeste 0 -- -- 28
2020-06-13 14:00:00 24.2 9 Oeste 23 Sudoeste 0 -- -- 28
2020-06-13 13:00:00 23.4 6 Sudoeste 22 Oeste 0 -- -- 31
2020-06-13 12:00:00 22.2 6 Sudoeste 15 Oeste 0 -- -- 32
2020-06-13 11:00:00 21.2 4 Sudeste 10 Nordeste 0 -- -- 41
2020-06-13 10:00:00 18.7 4 Noroeste 12 Noroeste 0 -- -- 52
2020-06-13 09:00:00 16.7 6 Noroeste 12 Noroeste 0 -- -- 62
2020-06-13 08:00:00 14 2 Sudeste 6 Noroeste 0 -- -- 77
2020-06-13 07:00:00 12.8 5 Noroeste 8 Noroeste 0 -- -- 82
2020-06-13 06:00:00 13.9 0 Calma 6 Sudoeste 0 -- -- 78
2020-06-13 05:00:00 14.8 3 Noroeste 10 Sudoeste 0 -- -- 74
2020-06-13 04:00:00 15.8 4 Sudoeste 14 Sudoeste 0 -- -- 69
2020-06-13 03:00:00 16.3 5 Oeste 20 Sudoeste 0 -- -- 67
2020-06-13 02:00:00 16.5 10 Sudoeste 27 Sudoeste 0 -- -- 65
2020-06-13 01:00:00 17.2 15 Sudoeste 33 Sudoeste 0 -- -- 61
2020-06-13 00:00:00 18 19 Sudoeste 38 Oeste 0 -- -- 58
2020-06-12 23:00:00 19.3 15 Sudoeste 46 Sudoeste 0 -- -- 45
2020-06-12 22:00:00 20.3 20 Sudoeste 42 Sudoeste 0 -- -- 43
2020-06-12 21:00:00 22 24 Sudoeste 45 Sudoeste 0 -- -- 37
2020-06-12 20:00:00 24.2 16 Sudoeste 40 Sudoeste 0 -- -- 24
2020-06-12 19:00:00 25.2 15 Oeste 43 Sudoeste 0 -- -- 22
2020-06-12 18:00:00 24.5 17 Oeste 33 Oeste 0 -- -- 24
2020-06-12 17:00:00 24.9 14 Sudoeste 35 Sudoeste 0 -- -- 25
2020-06-12 16:00:00 24.4 15 Sudoeste 27 Oeste 0 -- -- 23
2020-06-12 15:00:00 23.3 15 Oeste 30 Sudoeste 0 -- -- 25
2020-06-12 14:00:00 22.4 10 Oeste 31 Sudoeste 0 -- -- 27
2020-06-12 13:00:00 21.7 10 Sudoeste 25 Sur 0 -- -- 28
2020-06-12 12:00:00 20.8 10 Oeste 32 Oeste 0 -- -- 30
2020-06-12 11:00:00 19.8 8 Noroeste 23 Noroeste 0 -- -- 34
2020-06-12 10:00:00 18.4 12 Noroeste 27 Oeste 0 -- -- 38
2020-06-12 09:00:00 17.1 14 Noroeste 25 Oeste 0 -- -- 43
2020-06-12 08:00:00 16.5 9 Noroeste 19 Oeste 0 -- -- 45
2020-06-12 07:00:00 16.9 9 Noroeste 26 Oeste 0 -- -- 48
2020-06-12 06:00:00 17.1 17 Oeste 29 Oeste 0 -- -- 67
2020-06-12 05:00:00 18 10 Oeste 35 Oeste 0 -- -- 62
2020-06-12 04:00:00 18.7 19 Oeste 36 Oeste 0 -- -- 64
2020-06-12 03:00:00 18.9 10 Sudoeste 28 Oeste 0 -- -- 65
2020-06-12 02:00:00 18.5 13 Sudoeste 31 Sudoeste 0 -- -- 67
2020-06-12 01:00:00 18.7 16 Sudoeste 36 Sudoeste 0 -- -- 70
2020-06-12 00:00:00 19.1 17 Sudoeste 37 Sudoeste 0 -- -- 69
2020-06-11 23:00:00 19.4 16 Sudoeste 44 Sudoeste 0.2 -- -- 69
2020-06-11 22:00:00 20.8 22 Sudoeste 51 Sudoeste 0 -- -- 58
2020-06-11 21:00:00 21.8 26 Sudoeste 51 Sudoeste 0 -- -- 52
2020-06-11 20:00:00 23.4 26 Oeste 55 Sudoeste 0 -- -- 43
2020-06-11 19:00:00 24.5 28 Sudoeste 58 Oeste 0 -- -- 39
2020-06-11 18:00:00 25.6 32 Sudoeste 57 Sudoeste 0 -- -- 34
2020-06-11 17:00:00 26.7 24 Sudoeste 49 Oeste 0 -- -- 27
2020-06-11 16:00:00 26.3 25 Sudoeste 47 Oeste 0 -- -- 27
2020-06-11 15:00:00 25.7 22 Sudoeste 46 Oeste 0 -- -- 29
2020-06-11 14:00:00 25 23 Oeste 46 Sudoeste 0 -- -- 28
2020-06-11 13:00:00 24 23 Sudoeste 43 Sudoeste 0 -- -- 30
2020-06-11 12:00:00 22.8 19 Oeste 48 Oeste 0 -- -- 39
2020-06-11 11:00:00 21.3 19 Sudoeste 39 Oeste 0 -- -- 50
2020-06-11 10:00:00 19.5 14 Oeste 31 Oeste 0 -- -- 60
2020-06-11 09:00:00 17.8 15 Oeste 25 Oeste 0 -- -- 67
2020-06-11 08:00:00 16 2 Oeste 5 Sudoeste 0 -- -- 69
2020-06-11 07:00:00 14.6 2 Noroeste 5 Oeste 0 -- -- 72
2020-06-11 06:00:00 15.6 4 Oeste 9 Sudoeste 0 -- -- 67
2020-06-11 05:00:00 16.4 4 Sudoeste 12 Sudoeste 0 -- -- 63
2020-06-11 04:00:00 17 4 Sudoeste 10 Sudoeste 0 -- -- 58
2020-06-11 03:00:00 17.9 5 Sudoeste 13 Sudoeste 0 -- -- 53
2020-06-11 02:00:00 18.8 6 Sudoeste 26 Sur 0 -- -- 51
2020-06-11 01:00:00 20 13 Sudoeste 27 Sudoeste 0 -- -- 46
2020-06-11 00:00:00 21.4 13 Sudoeste 31 Sudoeste 0 -- -- 44
2020-06-10 23:00:00 23 15 Sudoeste 36 Sudoeste 0 -- -- 38
2020-06-10 22:00:00 24.7 13 Sudoeste 35 Oeste 0 -- -- 33
2020-06-10 21:00:00 27 19 Sudoeste 37 Sudoeste 0 -- -- 30
2020-06-10 20:00:00 29.7 19 Oeste 31 Oeste 0 -- -- 20
2020-06-10 19:00:00 30.3 17 Oeste 33 Oeste 0 -- -- 21
2020-06-10 18:00:00 30.5 17 Oeste 36 Oeste 0 -- -- 19
2020-06-10 17:00:00 30.9 14 Oeste 31 Oeste 0 -- -- 18
2020-06-10 16:00:00 30 13 Oeste 25 Oeste 0 -- -- 21
2020-06-10 15:00:00 29.4 11 Sudoeste 21 Sudoeste 0 -- -- 21
2020-06-10 14:00:00 27.9 8 Oeste 21 Sudoeste 0 -- -- 26
2020-06-10 13:00:00 26 7 Oeste 14 Oeste 0 -- -- 34
2020-06-10 12:00:00 23.8 6 Sudoeste 12 Sudoeste 0 -- -- 36
2020-06-10 11:00:00 21.3 5 Sudoeste 10 Oeste 0 -- -- 43
2020-06-10 10:00:00 19.6 3 Noroeste 8 Este 0 -- -- 50
2020-06-10 09:00:00 18.1 3 Sudeste 9 Nordeste 0 -- -- 62
2020-06-10 08:00:00 14.8 3 Nordeste 10 Nordeste 0 -- -- 78
2020-06-10 07:00:00 14.1 4 Sudeste 8 Sudeste 0 -- -- 83
2020-06-10 06:00:00 14.7 3 Este 5 Este 0 -- -- 78
2020-06-10 05:00:00 15.6 0 Calma 7 Oeste 0 -- -- 75
2020-06-10 04:00:00 16.7 5 Sudoeste 11 Oeste 0 -- -- 70
2020-06-10 03:00:00 17.7 4 Sudoeste 19 Sur 0 -- -- 66
2020-06-10 02:00:00 18.1 9 Sudoeste 14 Sudoeste 0 -- -- 58
2020-06-10 01:00:00 19.8 8 Sudoeste 22 Oeste 0 -- -- 48
2020-06-10 00:00:00 20.8 9 Sudoeste 23 Oeste 0 -- -- 44
2020-06-09 23:00:00 22.2 10 Sudoeste 26 Sudoeste 0 -- -- 41
2020-06-09 22:00:00 24.1 18 Oeste 33 Sudoeste 0 -- -- 36
2020-06-09 21:00:00 26.2 18 Sudoeste 45 Sudoeste 0 -- -- 30
2020-06-09 20:00:00 28.5 22 Sudoeste 39 Oeste 0 -- -- 25
2020-06-09 19:00:00 29.8 13 Sudoeste 31 Sudoeste 0 -- -- 18
2020-06-09 18:00:00 29.6 19 Oeste 32 Sudoeste 0 -- -- 19
2020-06-09 17:00:00 29.3 11 Oeste 30 Oeste 0 -- -- 18
2020-06-09 16:00:00 29.1 11 Oeste 29 Oeste 0 -- -- 19
2020-06-09 15:00:00 28.5 14 Oeste 31 Sudoeste 0 -- -- 21
2020-06-09 14:00:00 27.2 9 Oeste 22 Oeste 0 -- -- 26
2020-06-09 13:00:00 25.2 8 Oeste 22 Oeste 0 -- -- 33
2020-06-09 12:00:00 23.3 5 Norte 15 Sudoeste 0 -- -- 39
2020-06-09 11:00:00 21.1 5 Oeste 11 Noroeste 0 -- -- 46
2020-06-09 10:00:00 18.7 7 Oeste 13 Oeste 0 -- -- 62
2020-06-09 09:00:00 17.7 2 Sudoeste 6 Sudoeste 0 -- -- 65
2020-06-09 08:00:00 14.7 3 Este 5 Sudeste 0 -- -- 75
2020-06-09 07:00:00 13.2 2 Este 4 Este 0 -- -- 80
2020-06-09 06:00:00 14 0 Calma 4 Sudoeste 0 -- -- 75
2020-06-09 05:00:00 14.9 3 Sudoeste 6 Sudoeste 0 -- -- 72
2020-06-09 04:00:00 15.3 4 Sudoeste 8 Sudoeste 0 -- -- 69
2020-06-09 03:00:00 15.9 2 Sur 11 Oeste 0 -- -- 65
2020-06-09 02:00:00 16.9 4 Sudoeste 12 Oeste 0 -- -- 60
2020-06-09 01:00:00 17.9 7 Oeste 18 Oeste 0 -- -- 56
2020-06-09 00:00:00 19.1 12 Oeste 28 Oeste 0 -- -- 51
2020-06-08 23:00:00 20.4 16 Oeste 34 Sudoeste 0 -- -- 46
2020-06-08 22:00:00 21.8 12 Sudoeste 32 Sudoeste 0 -- -- 41
2020-06-08 21:00:00 23.7 19 Sudoeste 40 Oeste 0 -- -- 36
2020-06-08 20:00:00 26.6 14 Oeste 32 Oeste 0 -- -- 26
2020-06-08 19:00:00 27 15 Oeste 28 Oeste 0 -- -- 25
2020-06-08 18:00:00 27.4 15 Oeste 33 Oeste 0 -- -- 25
2020-06-08 17:00:00 27 10 Oeste 24 Sudoeste 0 -- -- 26
2020-06-08 16:00:00 26.1 8 Oeste 27 Oeste 0 -- -- 27
2020-06-08 15:00:00 24.7 10 Sudoeste 22 Sudoeste 0 -- -- 28
2020-06-08 14:00:00 22.6 8 Sudoeste 22 Oeste 0 -- -- 29
2020-06-08 13:00:00 21.7 12 Oeste 31 Sur 0 -- -- 29
2020-06-08 12:00:00 20.4 13 Sudoeste 28 Sudoeste 0 -- -- 34
2020-06-08 11:00:00 18.9 8 Oeste 24 Oeste 0 -- -- 42
2020-06-08 10:00:00 17.6 9 Oeste 17 Oeste 0 -- -- 44
2020-06-08 09:00:00 16.7 8 Noroeste 13 Noroeste 0 -- -- 48
2020-06-08 08:00:00 15.1 5 Noroeste 14 Noroeste 0 -- -- 53
2020-06-08 07:00:00 15.2 2 Noroeste 9 Noroeste 0 -- -- 59
2020-06-08 06:00:00 15.5 6 Noroeste 10 Noroeste 0 -- -- 60
2020-06-08 05:00:00 16.3 7 Sudoeste 14 Sudoeste 0 -- -- 84
2020-06-08 04:00:00 17.1 9 Sudoeste 17 Sudoeste 0 -- -- 83
2020-06-08 03:00:00 17.7 6 Oeste 15 Sudoeste 0 -- -- 77
2020-06-08 02:00:00 18.4 8 Sudoeste 26 Sudoeste 0 -- -- 72
2020-06-08 01:00:00 19.4 11 Sudoeste 28 Sudoeste 0 -- -- 66
2020-06-08 00:00:00 20.4 15 Sudoeste 28 Sudoeste 0 -- -- 59
2020-06-07 23:00:00 21.1 15 Sudoeste 36 Sudoeste 0 -- -- 57
2020-06-07 22:00:00 22.3 18 Sudoeste 41 Sudoeste 0 -- -- 53
2020-06-07 21:00:00 25.4 21 Sudoeste 43 Sudoeste 0 -- -- 35
2020-06-07 20:00:00 26.6 23 Sudoeste 44 Oeste 0 -- -- 34
2020-06-07 19:00:00 27.3 22 Oeste 41 Oeste 0 -- -- 32
2020-06-07 18:00:00 27.6 20 Oeste 41 Sudoeste 0 -- -- 32
2020-06-07 17:00:00 27.6 23 Oeste 48 Sudoeste 0 -- -- 32
2020-06-07 16:00:00 27.5 17 Oeste 39 Sudoeste 0 -- -- 33
2020-06-07 15:00:00 26.3 22 Oeste 42 Oeste 0 -- -- 33
2020-06-07 14:00:00 25.4 17 Oeste 48 Oeste 0 -- -- 34
2020-06-07 13:00:00 24.7 19 Oeste 39 Oeste 0 -- -- 36
2020-06-07 12:00:00 23.5 21 Oeste 37 Oeste 0 -- -- 42
2020-06-07 11:00:00 22.7 16 Oeste 27 Sudoeste 0 -- -- 45
2020-06-07 10:00:00 21.1 14 Oeste 25 Oeste 0 -- -- 53
2020-06-07 09:00:00 19.7 13 Oeste 21 Oeste 0 -- -- 59
2020-06-07 08:00:00 18.5 7 Sudoeste 14 Oeste 0 -- -- 72
2020-06-07 07:00:00 17.9 5 Oeste 14 Sudoeste 0 -- -- 76
2020-06-07 06:00:00 18.7 7 Sudoeste 15 Sudoeste 0 -- -- 74
2020-06-07 05:00:00 19.1 8 Oeste 25 Oeste 0 -- -- 73
2020-06-07 04:00:00 19 13 Oeste 24 Oeste 0 -- -- 72
2020-06-07 03:00:00 19 10 Oeste 24 Oeste 0 -- -- 71
2020-06-07 02:00:00 19.3 13 Sudoeste 27 Sudoeste 0 -- -- 63
2020-06-07 01:00:00 20.5 11 Sudoeste 25 Oeste 0 -- -- 52
2020-06-07 00:00:00 21.7 15 Oeste 39 Sudoeste 0 -- -- 44
2020-06-06 23:00:00 23.8 16 Sudoeste 35 Oeste 0 -- -- 35
2020-06-06 22:00:00 25.3 14 Sudoeste 35 Sudoeste 0 -- -- 30
2020-06-06 21:00:00 27.4 15 Sudoeste 35 Sudoeste 0 -- -- 28
2020-06-06 20:00:00 29 19 Sudoeste 35 Oeste 0 -- -- 25
2020-06-06 19:00:00 29.8 14 Oeste 36 Oeste 0 -- -- 25
2020-06-06 18:00:00 30.1 17 Sudoeste 34 Oeste 0 -- -- 25
2020-06-06 17:00:00 29.9 19 Oeste 37 Oeste 0 -- -- 27
2020-06-06 16:00:00 29.4 18 Sudoeste 33 Sudoeste 0 -- -- 28
2020-06-06 15:00:00 28.7 15 Oeste 28 Oeste 0 -- -- 31
2020-06-06 14:00:00 27.2 12 Oeste 28 Sudoeste 0 -- -- 38
2020-06-06 13:00:00 25.5 7 Oeste 17 Sudoeste 0 -- -- 45
2020-06-06 12:00:00 23.6 6 Sudoeste 14 Sudoeste 0 -- -- 52
2020-06-06 11:00:00 21.2 5 Oeste 14 Oeste 0 -- -- 61
2020-06-06 10:00:00 19.3 5 Oeste 15 Oeste 0 -- -- 72
2020-06-06 09:00:00 18 5 Oeste 10 Sudoeste 0 -- -- 82
2020-06-06 08:00:00 17 3 Este 4 Este 0 -- -- 87
2020-06-06 07:00:00 16.3 3 Noroeste 5 Oeste 0 -- -- 87
2020-06-06 06:00:00 16.6 3 Oeste 5 Oeste 0 -- -- 87
2020-06-06 05:00:00 16.7 2 Sudoeste 10 Sudoeste 0 -- -- 84
2020-06-06 04:00:00 17.2 6 Sudoeste 15 Sudoeste 0 -- -- 79
2020-06-06 03:00:00 17.9 3 Sudoeste 11 Sudoeste 0 -- -- 70
2020-06-06 02:00:00 19.1 6 Oeste 24 Sudoeste 0 -- -- 62
2020-06-06 01:00:00 20.3 9 Oeste 20 Oeste 0 -- -- 60
2020-06-06 00:00:00 21.4 9 Sudoeste 17 Sudoeste 0 -- -- 56
2020-06-05 23:00:00 22.7 10 Oeste 28 Oeste 0 -- -- 49
2020-06-05 22:00:00 24.1 13 Sudoeste 30 Sudoeste 0 -- -- 43
2020-06-05 21:00:00 26.2 15 Sudoeste 31 Sudoeste 0 -- -- 36
2020-06-05 20:00:00 28.2 16 Sudoeste 39 Oeste 0 -- -- 31
2020-06-05 19:00:00 29.2 19 Sudoeste 33 Oeste 0 -- -- 29
2020-06-05 18:00:00 29.7 21 Oeste 32 Oeste 0 -- -- 25
2020-06-05 17:00:00 29.4 19 Oeste 34 Oeste 0 -- -- 25
2020-06-05 16:00:00 28.8 17 Oeste 30 Oeste 0 -- -- 30
2020-06-05 15:00:00 28 17 Oeste 35 Oeste 0 -- -- 33
2020-06-05 14:00:00 26.9 18 Oeste 33 Oeste 0 -- -- 39
2020-06-05 13:00:00 25.9 13 Oeste 27 Oeste 0 -- -- 49
2020-06-05 12:00:00 24.2 10 Oeste 21 Oeste 0 -- -- 58
2020-06-05 11:00:00 22.9 9 Sudoeste 17 Sudoeste 0 -- -- 65
2020-06-05 10:00:00 21.6 6 Oeste 13 Sudoeste 0 -- -- 72
2020-06-05 09:00:00 19.4 6 Oeste 11 Sudoeste 0 -- -- 88
2020-06-05 08:00:00 18.8 5 Sudoeste 10 Sudoeste 0 -- -- 90
2020-06-05 07:00:00 18.3 0 Calma 6 Sudoeste 0 -- -- 91
2020-06-05 06:00:00 18.4 4 Sudoeste 14 Sudoeste 0 -- -- 91
2020-06-05 05:00:00 18.6 8 Sudoeste 23 Sudoeste 0 -- -- 89
2020-06-05 04:00:00 19.3 11 Sudoeste 21 Sudoeste 0 -- -- 81
2020-06-05 03:00:00 19.3 9 Sudoeste 22 Sudoeste 0 -- -- 79
2020-06-05 02:00:00 19.4 9 Sudoeste 23 Sudoeste 0 -- -- 78
2020-06-05 01:00:00 19.2 10 Sudoeste 23 Sudoeste 0 -- -- 76
2020-06-05 00:00:00 19.7 13 Sudoeste 34 Sudoeste 0 -- -- 70
2020-06-04 23:00:00 20.5 16 Sudoeste 34 Sudoeste 0 -- -- 61
2020-06-04 22:00:00 21.7 18 Sudoeste 40 Sudoeste 0 -- -- 56
2020-06-04 21:00:00 24.1 20 Sudoeste 51 Oeste 0 -- -- 52
2020-06-04 20:00:00 25.4 30 Oeste 53 Oeste 0 -- -- 50
2020-06-04 19:00:00 25.5 31 Oeste 52 Oeste 0 -- -- 49
2020-06-04 18:00:00 25.1 24 Sudoeste 50 Oeste 0 -- -- 56
2020-06-04 17:00:00 27.3 27 Oeste 48 Oeste 0 -- -- 41
2020-06-04 16:00:00 26.8 22 Oeste 36 Sudoeste 0 -- -- 42
2020-06-04 15:00:00 26.1 18 Oeste 40 Oeste 0 -- -- 43
2020-06-04 14:00:00 24.6 20 Oeste 36 Oeste 0 -- -- 47
2020-06-04 13:00:00 23.8 16 Oeste 34 Oeste 0 -- -- 48
2020-06-04 12:00:00 22.7 19 Oeste 35 Oeste 0 -- -- 52
2020-06-04 11:00:00 21.9 18 Oeste 34 Oeste 0 -- -- 56
2020-06-04 10:00:00 21.3 15 Oeste 27 Sudoeste 0 -- -- 58
2020-06-04 09:00:00 19.1 14 Oeste 23 Oeste 0 -- -- 69
2020-06-04 08:00:00 18.3 10 Sudoeste 22 Oeste 0 -- -- 83
2020-06-04 07:00:00 17.9 5 Oeste 10 Oeste 0 -- -- 88
2020-06-04 06:00:00 18.1 4 Oeste 11 Sudoeste 0 -- -- 86
2020-06-04 05:00:00 18.4 4 Sudoeste 15 Oeste 0 -- -- 84
2020-06-04 04:00:00 19.2 8 Oeste 21 Oeste 0 -- -- 79
2020-06-04 03:00:00 19.4 12 Oeste 21 Oeste 0 -- -- 77
2020-06-04 02:00:00 19.1 9 Sudoeste 27 Sudoeste 0 -- -- 77
2020-06-04 01:00:00 19.8 10 Sudoeste 25 Sudoeste 0 -- -- 69
2020-06-04 00:00:00 20.9 13 Sudoeste 32 Sudoeste 0 -- -- 59